Time;durP1;ratioP1;P1;durP2;ratioP2;P2;SDS_P1;SDS_P2;PMS_P1;PMS_P2;Temp;Humidity;BMP_temperature;BMP_pressure;BME280_temperature;BME280_humidity;BME280_pressure;Samples;Min_cycle;Max_cycle;Signal;HPM_P1;HPM_P2
2023/04/14 00:02:02;;;;;;;8.30;3.00;;;;;;;;;;106488;1270;22524;-84
2023/04/14 00:05:07;;;;;;;7.80;2.60;;;;;;;;;;106470;1283;24375;-84
2023/04/14 00:08:45;;;;;;;9.50;2.30;;;;;;;;;;106496;1283;22486;-83
2023/04/14 00:11:12;;;;;;;8.70;2.50;;;;;;;;;;106640;1262;25333;-84
2023/04/14 00:13:55;;;;;;;8.80;2.50;;;;;;;;;;106492;1281;22525;-85
2023/04/14 00:16:42;;;;;;;8.50;2.50;;;;;;;;;;106613;1281;22538;-85
2023/04/14 00:20:28;;;;;;;8.00;2.60;;;;;;;;;;106464;1282;22537;-83
2023/04/14 00:23:23;;;;;;;7.70;3.10;;;;;;;;;;106463;1270;22534;-82
2023/04/14 00:29:33;;;;;;;;;;;;;;;;;;;;;
2023/04/14 00:33:00;;;;;;;8.90;3.40;;;;;;;;;;106034;1269;22554;-82
2023/04/14 00:35:58;;;;;;;7.10;2.30;;;;;;;;;;106081;1282;22532;-82
2023/04/14 00:43:19;;;;;;;7.10;2.70;;;;;;;;;;106619;1273;25240;-81
2023/04/14 00:46:06;;;;;;;;;;;;;;;;;;;;;
2023/04/14 00:49:09;;;;;;;7.20;2.30;;;;;;;;;;106594;1281;22600;-83
2023/04/14 00:52:04;;;;;;;6.30;2.10;;;;;;;;;;106646;1263;24272;-85
2023/04/14 00:55:23;;;;;;;5.50;1.60;;;;;;;;;;106477;1282;22530;-82
2023/04/14 00:58:04;;;;;;;5.30;1.40;;;;;;;;;;106279;1287;22536;-85
2023/04/14 01:00:55;;;;;;;5.40;1.40;;;;;;;;;;106116;1287;24366;-83
2023/04/14 01:03:55;;;;;;;;;;;;;;;;;;;;;
2023/04/14 01:06:58;;;;;;;5.10;1.20;;;;;;;;;;106192;1283;22538;-81
2023/04/14 01:10:16;;;;;;;7.50;2.10;;;;;;;;;;106472;1283;25223;-80
2023/04/14 01:13:32;;;;;;;5.70;1.80;;;;;;;;;;106513;1264;25234;-84
2023/04/14 01:17:10;;;;;;;;;;;;;;;;;;;;;
2023/04/14 01:20:28;;;;;;;;;;;;;;;;;;;;;
2023/04/14 01:26:50;;;;;;;8.40;2.90;;;;;;;;;;107729;1307;22144;-81
2023/04/14 01:29:31;;;;;;;8.20;2.90;;;;;;;;;;107440;1308;22252;-81
2023/04/14 01:32:24;;;;;;;10.10;3.10;;;;;;;;;;107385;1307;22916;-81
2023/04/14 01:35:19;;;;;;;7.80;2.80;;;;;;;;;;107829;1295;22916;-80
2023/04/14 01:38:12;;;;;;;6.70;2.10;;;;;;;;;;107934;1305;22095;-81
2023/04/14 01:41:02;;;;;;;9.80;2.70;;;;;;;;;;107922;1305;21895;-81
2023/04/14 01:51:23;;;;;;;7.20;2.50;;;;;;;;;;107759;1307;22919;-81
2023/04/14 01:54:16;;;;;;;9.30;3.00;;;;;;;;;;108294;1279;22961;-81
2023/04/14 01:56:45;;;;;;;9.70;3.20;;;;;;;;;;108769;1295;22867;-81
2023/04/14 01:59:13;;;;;;;9.50;3.30;;;;;;;;;;108994;1295;22166;-80
2023/04/14 02:01:40;;;;;;;8.00;3.00;;;;;;;;;;108904;1295;22254;-81
2023/04/14 02:04:19;;;;;;;8.70;3.60;;;;;;;;;;109910;1261;22827;-81
2023/04/14 02:07:12;;;;;;;10.60;3.80;;;;;;;;;;109971;1283;22184;-81
2023/04/14 02:09:42;;;;;;;9.40;3.70;;;;;;;;;;109919;1283;21971;-80
2023/04/14 02:12:16;;;;;;;9.10;3.90;;;;;;;;;;110009;1283;22169;-80
2023/04/14 02:14:46;;;;;;;10.40;3.80;;;;;;;;;;110008;1266;22163;-81
2023/04/14 02:17:18;;;;;;;9.00;3.60;;;;;;;;;;110135;1276;22097;-80
2023/04/14 02:19:46;;;;;;;8.50;3.30;;;;;;;;;;110608;1276;22092;-81
2023/04/14 02:22:24;;;;;;;7.80;2.70;;;;;;;;;;110476;1276;22314;-80
2023/04/14 02:24:54;;;;;;;8.20;3.20;;;;;;;;;;110608;1258;22118;-81
2023/04/14 02:27:30;;;;;;;8.90;3.00;;;;;;;;;;110390;1276;22121;-80
2023/04/14 02:30:04;;;;;;;8.10;3.10;;;;;;;;;;110269;1276;22820;-81
2023/04/14 02:32:34;;;;;;;7.20;3.20;;;;;;;;;;110302;1276;22768;-81
2023/04/14 02:35:08;;;;;;;7.50;2.50;;;;;;;;;;110395;1260;22121;-80
2023/04/14 02:37:57;;;;;;;8.80;3.30;;;;;;;;;;110382;1276;22067;-81
2023/04/14 02:40:30;;;;;;;7.60;3.10;;;;;;;;;;110249;1276;22111;-81
2023/04/14 02:43:22;;;;;;;6.40;2.40;;;;;;;;;;110357;1276;22161;-81
2023/04/14 02:46:02;;;;;;;5.80;1.90;;;;;;;;;;110489;1260;22331;-81
2023/04/14 02:48:36;;;;;;;8.10;2.70;;;;;;;;;;110518;1276;22106;-81
2023/04/14 02:51:04;;;;;;;7.20;2.50;;;;;;;;;;110348;1276;22349;-80
2023/04/14 02:53:40;;;;;;;7.10;2.80;;;;;;;;;;110305;1276;22142;-81
2023/04/14 02:56:25;;;;;;;8.10;2.50;;;;;;;;;;110550;1259;22091;-81
2023/04/14 02:59:01;;;;;;;6.40;2.10;;;;;;;;;;110280;1276;22113;-81
2023/04/14 03:01:56;;;;;;;8.10;2.50;;;;;;;;;;110503;1276;22111;-81
2023/04/14 03:04:25;;;;;;;7.50;1.70;;;;;;;;;;110374;1276;22910;-82
2023/04/14 03:06:55;;;;;;;6.70;2.60;;;;;;;;;;110542;1259;22308;-81
2023/04/14 03:09:23;;;;;;;7.80;3.40;;;;;;;;;;110448;1276;22104;-81
2023/04/14 03:11:53;;;;;;;9.60;3.30;;;;;;;;;;110267;1276;22106;-81
2023/04/14 03:14:21;;;;;;;8.00;3.30;;;;;;;;;;110402;1276;22104;-81
2023/04/14 03:16:50;;;;;;;9.80;4.00;;;;;;;;;;110386;1261;22300;-81
2023/04/14 03:19:28;;;;;;;9.60;4.10;;;;;;;;;;110537;1276;21953;-81
2023/04/14 03:21:58;;;;;;;8.40;3.40;;;;;;;;;;110354;1276;22342;-81
2023/04/14 03:24:32;;;;;;;7.60;3.00;;;;;;;;;;110468;1276;22123;-80
2023/04/14 03:27:04;;;;;;;8.30;2.70;;;;;;;;;;110637;1258;22613;-81
2023/04/14 03:29:52;;;;;;;7.40;2.10;;;;;;;;;;110296;1277;22128;-80
2023/04/14 03:32:21;;;;;;;7.10;2.80;;;;;;;;;;110282;1276;22115;-81
2023/04/14 03:34:57;;;;;;;9.60;3.10;;;;;;;;;;110275;1277;22966;-82
2023/04/14 03:37:26;;;;;;;9.00;3.70;;;;;;;;;;110220;1259;22094;-81
2023/04/14 03:40:00;;;;;;;10.30;4.10;;;;;;;;;;110201;1277;22156;-81
2023/04/14 03:42:28;;;;;;;7.60;3.20;;;;;;;;;;110289;1277;22318;-80
2023/04/14 03:45:03;;;;;;;9.30;3.40;;;;;;;;;;110301;1277;22136;-81
2023/04/14 03:54:59;;;;;;;10.40;3.80;;;;;;;;;;109880;1285;22171;-80
2023/04/14 03:57:31;;;;;;;9.70;3.90;;;;;;;;;;109933;1268;22323;-81
2023/04/14 04:00:15;;;;;;;9.80;4.00;;;;;;;;;;109914;1285;22158;-80
2023/04/14 04:03:03;;;;;;;9.20;4.70;;;;;;;;;;109906;1281;22136;-81
2023/04/14 04:05:41;;;;;;;10.50;5.00;;;;;;;;;;109893;1284;22379;-81
2023/04/14 04:08:11;;;;;;;8.90;4.30;;;;;;;;;;109855;1277;22151;-81
2023/04/14 04:10:58;;;;;;;11.50;5.20;;;;;;;;;;109900;1278;22157;-80
2023/04/14 04:13:25;;;;;;;8.70;5.20;;;;;;;;;;109829;1285;22837;-81
2023/04/14 04:15:56;;;;;;;12.80;5.20;;;;;;;;;;109785;1285;22775;-82
2023/04/14 04:18:32;;;;;;;11.60;5.20;;;;;;;;;;110022;1270;21986;-80
2023/04/14 04:21:13;;;;;;;13.30;6.10;;;;;;;;;;109820;1282;22140;-80
2023/04/14 04:23:41;;;;;;;10.30;4.00;;;;;;;;;;109780;1285;22169;-81
2023/04/14 04:26:22;;;;;;;8.80;4.40;;;;;;;;;;109770;1284;22226;-81
2023/04/14 04:28:56;;;;;;;11.80;5.50;;;;;;;;;;110289;1278;22122;-80
2023/04/14 04:31:50;;;;;;;13.90;5.70;;;;;;;;;;110199;1277;22094;-81
2023/04/14 04:34:21;;;;;;;11.40;5.80;;;;;;;;;;110336;1278;22091;-80
2023/04/14 04:37:11;;;;;;;;;;;;;;;;;;;;;
2023/04/14 04:44:01;;;;;;;14.80;7.30;;;;;;;;;;109977;1283;22020;-80
2023/04/14 04:46:53;;;;;;;12.70;7.40;;;;;;;;;;109918;1283;22221;-81
2023/04/14 04:49:41;;;;;;;;;;;;;;;;;;;;;
2023/04/14 04:52:14;;;;;;;12.70;7.40;;;;;;;;;;109941;1283;22171;-81
2023/04/14 04:54:50;;;;;;;12.50;7.10;;;;;;;;;;109922;1277;22152;-80
2023/04/14 04:57:18;;;;;;;14.60;7.80;;;;;;;;;;109961;1283;22153;-81
2023/04/14 04:59:48;;;;;;;15.00;7.90;;;;;;;;;;109962;1265;22141;-81
2023/04/14 05:02:26;;;;;;;15.00;8.60;;;;;;;;;;109952;1283;22855;-81
2023/04/14 05:05:11;;;;;;;;;;;;;;;;;;;;;
2023/04/14 05:07:46;;;;;;;15.50;8.30;;;;;;;;;;109928;1261;22404;-80
2023/04/14 05:10:24;;;;;;;17.20;8.90;;;;;;;;;;109954;1283;22905;-81
2023/04/14 05:13:21;;;;;;;16.70;8.70;;;;;;;;;;109937;1283;22154;-81
2023/04/14 05:15:48;;;;;;;16.10;8.40;;;;;;;;;;109966;1279;22166;-81
2023/04/14 05:18:40;;;;;;;;;;;;;;;;;;;;;
2023/04/14 05:21:13;;;;;;;16.40;8.30;;;;;;;;;;110435;1278;22095;-80
2023/04/14 05:23:46;;;;;;;13.70;6.70;;;;;;;;;;110196;1278;22082;-81
2023/04/14 05:30:59;;;;;;;18.30;8.30;;;;;;;;;;110009;1265;22186;-80
2023/04/14 05:33:26;;;;;;;18.80;8.90;;;;;;;;;;110012;1282;22954;-81
2023/04/14 05:36:01;;;;;;;18.60;8.20;;;;;;;;;;109943;1282;22172;-80
2023/04/14 05:43:22;;;;;;;17.20;7.80;;;;;;;;;;109746;1268;22891;-81
2023/04/14 05:45:57;;;;;;;14.70;7.00;;;;;;;;;;109733;1288;22154;-81
2023/04/14 05:48:57;;;;;;;;;;;;;;;;;;;;;
2023/04/14 05:51:39;;;;;;;17.10;7.90;;;;;;;;;;109703;1271;22357;-81
2023/04/14 05:54:10;;;;;;;15.70;7.70;;;;;;;;;;109727;1288;22148;-81
2023/04/14 05:56:50;;;;;;;14.40;7.20;;;;;;;;;;109650;1288;22818;-81
2023/04/14 05:59:20;;;;;;;14.70;6.80;;;;;;;;;;109722;1288;22163;-82
2023/04/14 06:02:04;;;;;;;17.00;7.50;;;;;;;;;;109720;1271;22014;-81
2023/04/14 06:04:43;;;;;;;16.00;8.30;;;;;;;;;;109755;1285;22862;-81
2023/04/14 06:07:11;;;;;;;16.50;7.10;;;;;;;;;;109895;1285;22869;-81
2023/04/14 06:09:45;;;;;;;21.70;8.90;;;;;;;;;;109842;1285;22214;-81
2023/04/14 06:12:21;;;;;;;19.00;8.70;;;;;;;;;;109823;1268;22107;-81
2023/04/14 06:15:12;;;;;;;19.40;8.70;;;;;;;;;;109774;1286;22144;-81
2023/04/14 06:17:42;;;;;;;23.00;9.10;;;;;;;;;;109830;1279;22140;-81
2023/04/14 06:20:17;;;;;;;18.60;7.80;;;;;;;;;;110293;1279;22405;-81
2023/04/14 06:22:59;;;;;;;16.60;7.40;;;;;;;;;;110436;1260;22389;-81
2023/04/14 06:25:35;;;;;;;17.60;8.60;;;;;;;;;;110264;1279;22103;-81
2023/04/14 06:28:02;;;;;;;19.10;8.60;;;;;;;;;;110086;1280;22027;-81
2023/04/14 06:30:33;;;;;;;16.90;8.10;;;;;;;;;;110113;1279;22113;-81
2023/04/14 06:33:07;;;;;;;16.60;8.10;;;;;;;;;;110465;1262;22149;-81
2023/04/14 06:35:38;;;;;;;17.00;7.80;;;;;;;;;;110221;1279;22101;-81
2023/04/14 06:38:29;;;;;;;17.30;7.70;;;;;;;;;;110067;1280;21694;-81
2023/04/14 06:41:27;;;;;;;21.20;11.30;;;;;;;;;;110237;1279;22113;-82
2023/04/14 06:46:57;;;;;;;29.40;15.60;;;;;;;;;;104009;1292;544812;-82
2023/04/14 06:49:53;;;;;;;42.80;22.50;;;;;;;;;;106480;1286;25360;-82
2023/04/14 06:53:29;;;;;;;21.50;10.10;;;;;;;;;;106412;1286;25301;-84
2023/04/14 06:56:05;;;;;;;16.90;7.40;;;;;;;;;;106453;1269;22519;-85
2023/04/14 06:59:28;;;;;;;18.30;8.90;;;;;;;;;;106047;1287;22530;-88
2023/04/14 07:02:57;;;;;;;;;;;;;;;;;;;;;
2023/04/14 07:06:05;;;;;;;11.50;4.90;;;;;;;;;;105048;1276;26131;-85
2023/04/14 07:09:24;;;;;;;11.20;5.30;;;;;;;;;;105221;1300;22556;-84
2023/04/14 07:12:01;;;;;;;12.10;5.80;;;;;;;;;;105323;1300;24296;-82
2023/04/14 07:15:13;;;;;;;13.40;6.50;;;;;;;;;;105135;1300;24263;-84
2023/04/14 07:22:14;;;;;;;14.50;6.50;;;;;;;;;;105254;1300;25344;-85
2023/04/14 07:24:52;;;;;;;9.50;4.40;;;;;;;;;;104107;1307;23181;-82
2023/04/14 07:27:47;;;;;;;14.10;6.60;;;;;;;;;;104049;1289;22684;-88
2023/04/14 07:30:57;;;;;;;10.80;4.50;;;;;;;;;;104404;1308;24489;-84
2023/04/14 07:34:42;;;;;;;11.00;5.10;;;;;;;;;;104352;1309;22591;-82
2023/04/14 07:37:35;;;;;;;;;;;;;;;;;;;;;
2023/04/14 07:40:40;;;;;;;14.10;6.80;;;;;;;;;;104876;1303;22630;-81
2023/04/14 07:44:04;;;;;;;16.40;8.70;;;;;;;;;;105725;1295;22546;-82
2023/04/14 07:50:51;;;;;;;10.90;5.70;;;;;;;;;;105353;1299;22627;-82
2023/04/14 07:53:10;;;;;;;9.60;4.90;;;;;;;;;;105345;1299;22545;-85
2023/04/14 07:56:21;;;;;;;8.90;5.00;;;;;;;;;;105223;1299;24390;-88
2023/04/14 07:59:19;;;;;;;9.70;5.00;;;;;;;;;;105322;1300;22591;-88
2023/04/14 08:02:12;;;;;;;;;;;;;;;;;;;;;
2023/04/14 08:05:25;;;;;;;;;;;;;;;;;;;;;
2023/04/14 08:09:17;;;;;;;13.10;6.00;;;;;;;;;;105806;1274;22529;-82
2023/04/14 08:11:42;;;;;;;10.00;5.80;;;;;;;;;;105787;1294;25366;-85
2023/04/14 08:14:37;;;;;;;8.80;3.90;;;;;;;;;;105745;1294;22802;-83
2023/04/14 08:17:45;;;;;;;12.90;6.40;;;;;;;;;;105876;1270;22549;-82
2023/04/14 08:20:41;;;;;;;10.80;5.90;;;;;;;;;;106059;1286;22560;-86
2023/04/14 08:24:05;;;;;;;11.00;5.40;;;;;;;;;;105918;1286;22556;-82
2023/04/14 08:26:56;;;;;;;9.30;4.50;;;;;;;;;;106371;1278;22608;-82
2023/04/14 08:29:52;;;;;;;8.40;3.60;;;;;;;;;;106778;1264;25358;-83
2023/04/14 08:32:43;;;;;;;8.60;4.20;;;;;;;;;;106796;1278;24813;-85
2023/04/14 08:35:43;;;;;;;;;;;;;;;;;;;;;
2023/04/14 08:38:15;;;;;;;10.00;5.30;;;;;;;;;;106685;1260;24292;-82
2023/04/14 08:41:13;;;;;;;11.50;6.50;;;;;;;;;;106423;1262;23540;-82
2023/04/14 08:43:51;;;;;;;11.60;5.80;;;;;;;;;;106659;1280;23569;-83
2023/04/14 08:46:54;;;;;;;11.10;5.70;;;;;;;;;;106440;1280;24200;-82
2023/04/14 08:49:34;;;;;;;10.70;5.80;;;;;;;;;;106429;1279;24226;-82
2023/04/14 08:52:26;;;;;;;10.70;5.60;;;;;;;;;;103804;1304;545471;-82
2023/04/14 08:55:04;;;;;;;10.00;5.30;;;;;;;;;;106045;1288;25449;-84
2023/04/14 08:58:04;;;;;;;9.10;4.80;;;;;;;;;;106185;1288;24381;-82
2023/04/14 09:00:41;;;;;;;8.60;4.90;;;;;;;;;;106029;1287;22531;-81
2023/04/14 09:03:25;;;;;;;9.30;4.70;;;;;;;;;;106078;1270;22538;-83
2023/04/14 09:05:55;;;;;;;9.50;4.60;;;;;;;;;;104009;1285;2880595;-83
2023/04/14 09:08:55;;;;;;;7.90;3.40;;;;;;;;;;106374;1285;25296;-84
2023/04/14 09:11:48;;;;;;;8.40;4.00;;;;;;;;;;106490;1263;25304;-90
2023/04/14 09:14:49;;;;;;;8.30;4.10;;;;;;;;;;106498;1285;25367;-85
2023/04/14 09:17:46;;;;;;;9.70;4.90;;;;;;;;;;106483;1285;24206;-82
2023/04/14 09:20:46;;;;;;;11.10;5.90;;;;;;;;;;106945;1276;25217;-81
2023/04/14 09:23:27;;;;;;;10.80;5.60;;;;;;;;;;106940;1262;22513;-84
2023/04/14 09:26:46;;;;;;;;;;;;;;;;;;;;;
2023/04/14 09:29:17;;;;;;;12.10;5.60;;;;;;;;;;106839;1278;23008;-83
2023/04/14 09:32:00;;;;;;;;;;;;;;;;;;;;;
2023/04/14 09:35:17;;;;;;;;;;;;;;;;;;;;;
2023/04/14 09:38:25;;;;;;;10.90;5.10;;;;;;;;;;106776;1278;22767;-80
2023/04/14 09:41:06;;;;;;;11.00;5.60;;;;;;;;;;106557;1278;22543;-84
2023/04/14 09:47:54;;;;;;;10.00;5.50;;;;;;;;;;106772;1275;25350;-81
2023/04/14 09:50:34;;;;;;;10.70;5.90;;;;;;;;;;106715;1278;24277;-82
2023/04/14 09:53:21;;;;;;;11.80;6.60;;;;;;;;;;106781;1259;22551;-83
2023/04/14 09:55:52;;;;;;;13.60;7.10;;;;;;;;;;106687;1279;22649;-80
2023/04/14 09:58:37;;;;;;;13.10;7.40;;;;;;;;;;106705;1275;25237;-81
2023/04/14 10:01:17;;;;;;;12.70;6.80;;;;;;;;;;106737;1276;25531;-80
2023/04/14 10:04:01;;;;;;;12.10;7.10;;;;;;;;;;106864;1276;22531;-81
2023/04/14 10:06:40;;;;;;;13.20;7.70;;;;;;;;;;106656;1276;22531;-81
2023/04/14 10:09:22;;;;;;;15.00;7.80;;;;;;;;;;106922;1276;24214;-83
2023/04/14 10:12:20;;;;;;;14.10;8.40;;;;;;;;;;106907;1276;24187;-82
2023/04/14 10:15:18;;;;;;;15.10;8.80;;;;;;;;;;106773;1263;22542;-81
2023/04/14 10:17:59;;;;;;;15.00;8.50;;;;;;;;;;106802;1276;22856;-82
2023/04/14 10:20:41;;;;;;;15.90;9.50;;;;;;;;;;106836;1276;25312;-81
2023/04/14 10:23:48;;;;;;;16.80;9.90;;;;;;;;;;106749;1253;25532;-81
2023/04/14 10:26:29;;;;;;;15.80;9.10;;;;;;;;;;106771;1276;23865;-81
2023/04/14 10:29:01;;;;;;;17.30;10.20;;;;;;;;;;107012;1276;22536;-81
2023/04/14 10:31:41;;;;;;;293.30;181.50;;;;;;;;;;106977;1276;23875;-83
2023/04/14 10:38:02;;;;;;;21.20;14.00;;;;;;;;;;106066;1288;22536;-80
2023/04/14 10:41:05;;;;;;;28.90;19.70;;;;;;;;;;106030;1288;22536;-81
2023/04/14 10:44:41;;;;;;;25.20;19.70;;;;;;;;;;103735;1312;545552;-81
2023/04/14 10:47:06;;;;;;;28.40;19.20;;;;;;;;;;106124;1288;25261;-81
2023/04/14 10:50:08;;;;;;;24.00;16.40;;;;;;;;;;106150;1265;24273;-80
2023/04/14 10:53:11;;;;;;;24.00;14.70;;;;;;;;;;106118;1288;25344;-80
2023/04/14 10:56:11;;;;;;;25.00;14.50;;;;;;;;;;106312;1268;25508;-85
2023/04/14 10:58:58;;;;;;;24.10;15.10;;;;;;;;;;104717;1279;2838073;-85
2023/04/14 11:01:51;;;;;;;22.20;14.90;;;;;;;;;;106812;1278;25325;-83
2023/04/14 11:04:56;;;;;;;25.60;15.50;;;;;;;;;;106870;1260;22773;-85
2023/04/14 11:08:00;;;;;;;;;;;;;;;;;;;;;
2023/04/14 11:10:59;;;;;;;26.80;15.60;;;;;;;;;;106895;1279;24366;-83
2023/04/14 11:14:13;;;;;;;;;;;;;;;;;;;;;
2023/04/14 11:17:55;;;;;;;28.80;19.30;;;;;;;;;;106918;1266;22783;-83
2023/04/14 11:20:34;;;;;;;29.70;19.30;;;;;;;;;;106822;1278;23905;-84
2023/04/14 11:23:24;;;;;;;31.90;17.70;;;;;;;;;;106939;1278;24254;-80
2023/04/14 11:27:18;;;;;;;33.00;19.70;;;;;;;;;;106946;1258;22521;-82
2023/04/14 11:29:51;;;;;;;;;;;;;;;;;;;;;
2023/04/14 11:32:38;;;;;;;30.70;19.10;;;;;;;;;;106346;1286;22533;-83
2023/04/14 11:35:30;;;;;;;33.30;20.50;;;;;;;;;;106090;1264;22586;-84
2023/04/14 11:38:39;;;;;;;40.30;23.60;;;;;;;;;;106355;1286;22535;-87
2023/04/14 11:42:04;;;;;;;63.10;32.90;;;;;;;;;;106285;1286;22757;-88
2023/04/14 11:44:39;;;;;;;38.30;23.40;;;;;;;;;;106080;1287;24354;-84
2023/04/14 11:47:45;;;;;;;;;;;;;;;;;;;;;
2023/04/14 11:50:19;;;;;;;40.60;24.70;;;;;;;;;;106461;1283;22490;-80
2023/04/14 11:53:02;;;;;;;39.80;25.00;;;;;;;;;;106208;1287;24206;-84
2023/04/14 11:55:43;;;;;;;57.30;34.80;;;;;;;;;;106338;1270;25523;-82
2023/04/14 11:58:15;;;;;;;35.40;21.40;;;;;;;;;;106100;1282;22925;-83
2023/04/14 12:00:56;;;;;;;31.30;18.20;;;;;;;;;;106063;1282;22549;-85
2023/04/14 12:04:06;;;;;;;;;;;;;;;;;;;;;
2023/04/14 12:07:05;;;;;;;72.80;39.10;;;;;;;;;;106028;1269;22846;-80
2023/04/14 12:09:48;;;;;;;58.70;35.80;;;;;;;;;;106194;1282;22541;-81
2023/04/14 12:12:28;;;;;;;47.10;30.80;;;;;;;;;;106155;1283;22573;-81
2023/04/14 12:14:55;;;;;;;45.90;29.20;;;;;;;;;;106106;1283;24975;-81
2023/04/14 12:18:13;;;;;;;;;;;;;;;;;;;;;
2023/04/14 12:21:34;;;;;;;48.70;28.30;;;;;;;;;;106183;1281;22552;-85
2023/04/14 12:24:28;;;;;;;68.30;36.50;;;;;;;;;;105931;1286;22540;-83
2023/04/14 12:27:17;;;;;;;55.80;32.60;;;;;;;;;;105803;1289;24246;-81
2023/04/14 12:30:08;;;;;;;44.20;27.20;;;;;;;;;;105978;1292;24239;-81
2023/04/14 12:33:17;;;;;;;43.30;27.40;;;;;;;;;;105838;1286;23038;-82
2023/04/14 12:36:34;;;;;;;43.50;28.00;;;;;;;;;;105834;1293;22547;-81
2023/04/14 12:39:09;;;;;;;45.90;29.50;;;;;;;;;;105860;1274;22674;-83
2023/04/14 12:42:45;;;;;;;41.30;24.50;;;;;;;;;;105683;1289;22591;-84
2023/04/14 12:45:29;;;;;;;37.00;22.20;;;;;;;;;;105850;1290;22574;-82
2023/04/14 12:48:33;;;;;;;46.20;25.20;;;;;;;;;;105755;1271;22623;-81
2023/04/14 12:51:34;;;;;;;;;;;;;;;;;;;;;
2023/04/14 12:54:11;;;;;;;54.20;26.60;;;;;;;;;;105865;1288;23900;-86
2023/04/14 12:56:52;;;;;;;43.40;24.60;;;;;;;;;;105696;1292;25589;-84
2023/04/14 12:59:38;;;;;;;49.90;30.10;;;;;;;;;;105807;1277;22550;-80
2023/04/14 13:02:14;;;;;;;58.70;32.50;;;;;;;;;;106057;1285;24204;-81
2023/04/14 13:04:50;;;;;;;54.60;33.20;;;;;;;;;;106214;1280;24044;-82
2023/04/14 13:07:20;;;;;;;59.90;36.80;;;;;;;;;;106389;1277;22700;-81
2023/04/14 13:10:06;;;;;;;47.90;30.00;;;;;;;;;;106287;1278;22527;-81
2023/04/14 13:12:52;;;;;;;38.50;23.60;;;;;;;;;;106303;1278;22536;-80
2023/04/14 13:15:35;;;;;;;46.00;28.20;;;;;;;;;;106369;1278;22534;-81
2023/04/14 13:18:06;;;;;;;45.90;29.20;;;;;;;;;;106385;1278;22642;-82
2023/04/14 13:20:50;;;;;;;40.90;23.70;;;;;;;;;;106471;1267;22557;-81
2023/04/14 13:23:40;;;;;;;47.10;27.70;;;;;;;;;;107009;1269;24221;-81
2023/04/14 13:26:17;;;;;;;47.00;30.40;;;;;;;;;;107102;1269;22586;-79
2023/04/14 13:28:55;;;;;;;54.70;34.50;;;;;;;;;;107024;1271;24230;-79
2023/04/14 13:31:34;;;;;;;48.60;29.10;;;;;;;;;;106796;1274;22529;-80
2023/04/14 13:34:09;;;;;;;94.70;67.80;;;;;;;;;;106930;1275;22571;-80
2023/04/14 13:37:01;;;;;;;50.00;31.20;;;;;;;;;;107050;1269;23260;-81
2023/04/14 13:39:35;;;;;;;57.30;37.40;;;;;;;;;;107056;1255;24354;-81
2023/04/14 13:42:13;;;;;;;46.90;28.70;;;;;;;;;;107055;1270;22487;-80
2023/04/14 13:45:07;;;;;;;44.50;28.00;;;;;;;;;;106936;1276;25228;-83
2023/04/14 13:47:31;;;;;;;46.40;29.70;;;;;;;;;;106838;1276;24209;-82
2023/04/14 13:50:38;;;;;;;44.50;29.00;;;;;;;;;;106779;1260;22568;-81
2023/04/14 13:53:08;;;;;;;48.30;30.80;;;;;;;;;;106745;1276;24186;-81
2023/04/14 13:55:54;;;;;;;46.90;29.30;;;;;;;;;;106564;1276;22530;-80
2023/04/14 13:58:29;;;;;;;46.10;27.80;;;;;;;;;;107049;1272;25358;-81
2023/04/14 14:01:10;;;;;;;41.40;23.40;;;;;;;;;;106811;1260;25322;-81
2023/04/14 14:03:49;;;;;;;42.50;25.50;;;;;;;;;;106767;1269;22583;-79
2023/04/14 14:09:16;;;;;;;45.30;29.30;;;;;;;;;;106821;1269;24757;-80
2023/04/14 14:11:55;;;;;;;47.00;29.10;;;;;;;;;;107295;1258;25395;-80
2023/04/14 14:14:51;;;;;;;48.00;29.70;;;;;;;;;;107189;1269;22543;-82
2023/04/14 14:18:08;;;;;;;47.90;29.80;;;;;;;;;;107174;1271;25533;-80
2023/04/14 14:20:56;;;;;;;47.30;29.50;;;;;;;;;;106997;1270;22577;-81
2023/04/14 14:23:39;;;;;;;45.50;28.40;;;;;;;;;;106967;1271;22546;-81
2023/04/14 14:26:16;;;;;;;46.00;28.10;;;;;;;;;;106854;1271;25624;-79
2023/04/14 14:28:55;;;;;;;49.20;32.90;;;;;;;;;;106795;1257;22540;-81
2023/04/14 14:31:35;;;;;;;;;;;;;;;;;;;;;
2023/04/14 14:34:22;;;;;;;52.70;32.10;;;;;;;;;;107132;1268;25275;-79
2023/04/14 14:37:50;;;;;;;;;;;;;;;;;;;;;
2023/04/14 14:40:45;;;;;;;51.20;31.30;;;;;;;;;;106813;1256;25506;-83
2023/04/14 14:43:48;;;;;;;51.60;30.50;;;;;;;;;;106732;1278;22526;-86
2023/04/14 14:47:04;;;;;;;46.00;28.00;;;;;;;;;;106819;1278;22526;-80
2023/04/14 14:49:55;;;;;;;42.50;27.30;;;;;;;;;;106849;1278;24308;-82
2023/04/14 14:52:39;;;;;;;51.20;30.90;;;;;;;;;;106508;1255;22540;-82
2023/04/14 14:55:36;;;;;;;50.60;31.90;;;;;;;;;;106743;1279;25231;-79
2023/04/14 14:58:57;;;;;;;48.90;30.40;;;;;;;;;;106555;1279;22559;-82
2023/04/14 15:02:24;;;;;;;55.80;31.50;;;;;;;;;;106812;1259;22560;-80
2023/04/14 15:08:49;;;;;;;52.20;30.50;;;;;;;;;;106288;1286;24247;-82
2023/04/14 15:14:20;;;;;;;59.70;34.70;;;;;;;;;;106311;1283;24253;-81
2023/04/14 15:17:00;;;;;;;56.70;32.40;;;;;;;;;;106201;1282;25335;-83
2023/04/14 15:20:01;;;;;;;;;;;;;;;;;;;;;
2023/04/14 15:22:50;;;;;;;58.00;33.20;;;;;;;;;;106448;1263;22542;-81
2023/04/14 15:25:34;;;;;;;57.70;33.40;;;;;;;;;;106351;1280;26495;-85
2023/04/14 15:28:23;;;;;;;61.40;34.50;;;;;;;;;;106430;1276;26128;-81
2023/04/14 15:31:12;;;;;;;57.50;33.50;;;;;;;;;;106484;1282;22543;-79
2023/04/14 15:34:13;;;;;;;;;;;;;;;;;;;;;
2023/04/14 15:37:00;;;;;;;;;;;;;;;;;;;;;
2023/04/14 15:39:58;;;;;;;51.60;30.00;;;;;;;;;;106564;1275;22884;-80
2023/04/14 15:42:48;;;;;;;52.20;31.80;;;;;;;;;;106427;1264;24244;-81
2023/04/14 15:45:48;;;;;;;;;;;;;;;;;;;;;
2023/04/14 15:48:23;;;;;;;51.80;30.80;;;;;;;;;;107033;1275;25360;-80
2023/04/14 15:50:56;;;;;;;52.80;32.30;;;;;;;;;;106943;1269;23644;-81
2023/04/14 15:53:38;;;;;;;51.00;31.20;;;;;;;;;;106972;1258;22540;-81
2023/04/14 15:56:36;;;;;;;48.90;29.20;;;;;;;;;;106946;1272;22544;-81
2023/04/14 15:59:13;;;;;;;51.70;31.10;;;;;;;;;;107116;1267;22654;-85
2023/04/14 16:01:59;;;;;;;50.70;31.20;;;;;;;;;;107040;1269;24349;-82
2023/04/14 16:04:45;;;;;;;45.50;27.30;;;;;;;;;;107086;1259;25257;-82
2023/04/14 16:07:42;;;;;;;55.70;32.40;;;;;;;;;;107466;1272;22523;-80
2023/04/14 16:10:16;;;;;;;58.10;34.70;;;;;;;;;;107148;1267;26575;-80
2023/04/14 16:13:16;;;;;;;;;;;;;;;;;;;;;
2023/04/14 16:16:07;;;;;;;46.10;27.60;;;;;;;;;;106925;1275;25571;-82
2023/04/14 16:18:54;;;;;;;;;;;;;;;;;;;;;
2023/04/14 16:21:32;;;;;;;43.50;28.70;;;;;;;;;;108406;1275;25400;-81
2023/04/14 16:24:19;;;;;;;47.90;29.60;;;;;;;;;;107181;1273;24309;-83
2023/04/14 16:27:14;;;;;;;52.00;30.90;;;;;;;;;;107263;1276;22533;-80
2023/04/14 16:29:58;;;;;;;47.90;30.30;;;;;;;;;;107209;1270;24226;-81
2023/04/14 16:32:25;;;;;;;47.70;29.90;;;;;;;;;;107074;1273;22508;-81
2023/04/14 16:35:11;;;;;;;40.40;24.10;;;;;;;;;;107019;1259;25230;-82
2023/04/14 16:37:56;;;;;;;46.80;29.50;;;;;;;;;;107118;1269;22646;-80
2023/04/14 16:40:34;;;;;;;47.70;28.10;;;;;;;;;;106920;1271;22530;-84
2023/04/14 16:43:20;;;;;;;50.00;29.90;;;;;;;;;;107034;1274;25236;-81
2023/04/14 16:46:10;;;;;;;51.90;31.50;;;;;;;;;;107040;1259;22548;-84
2023/04/14 16:49:16;;;;;;;51.60;30.70;;;;;;;;;;106924;1275;22552;-81
2023/04/14 16:51:53;;;;;;;45.50;28.70;;;;;;;;;;107388;1274;23000;-80
2023/04/14 16:55:13;;;;;;;;;;;;;;;;;;;;;
2023/04/14 16:58:22;;;;;;;;;;;;;;;;;;;;;
2023/04/14 17:01:44;;;;;;;52.10;32.80;;;;;;;;;;106116;1288;22570;-81
2023/04/14 17:04:55;;;;;;;;;;;;;;;;;;;;;
2023/04/14 17:07:42;;;;;;;;;;;;;;;;;;;;;
2023/04/14 17:10:41;;;;;;;;;;;;;;;;;;;;;
2023/04/14 17:13:36;;;;;;;60.40;36.30;;;;;;;;;;106136;1288;22579;-84
2023/04/14 17:17:15;;;;;;;54.00;34.40;;;;;;;;;;106206;1270;22539;-81
2023/04/14 17:19:57;;;;;;;52.30;30.90;;;;;;;;;;106080;1288;25362;-82
2023/04/14 17:23:49;;;;;;;50.60;30.10;;;;;;;;;;106057;1288;24222;-85
2023/04/14 17:26:55;;;;;;;44.30;25.70;;;;;;;;;;106079;1269;23945;-85
2023/04/14 17:30:26;;;;;;;51.60;30.80;;;;;;;;;;105997;1288;22565;-82
2023/04/14 17:33:36;;;;;;;43.00;25.30;;;;;;;;;;106332;1284;21790;-81
2023/04/14 17:36:12;;;;;;;;;;;;;;;;;;;;;
2023/04/14 17:39:42;;;;;;;51.50;29.50;;;;;;;;;;106868;1276;25285;-82
2023/04/14 17:42:52;;;;;;;50.40;29.20;;;;;;;;;;106908;1276;23157;-80
2023/04/14 17:46:33;;;;;;;40.40;22.20;;;;;;;;;;106974;1259;24294;-78
2023/04/14 17:49:16;;;;;;;47.80;28.10;;;;;;;;;;107063;1276;25344;-81
2023/04/14 17:52:36;;;;;;;;;;;;;;;;;;;;;
2023/04/14 17:55:20;;;;;;;57.10;33.90;;;;;;;;;;107110;1254;22556;-80
2023/04/14 17:58:38;;;;;;;49.60;27.90;;;;;;;;;;107018;1276;25351;-80
2023/04/14 18:02:00;;;;;;;49.90;28.50;;;;;;;;;;106703;1275;24199;-81
2023/04/14 18:04:35;;;;;;;57.00;33.20;;;;;;;;;;106687;1275;25595;-83
2023/04/14 18:08:17;;;;;;;54.10;30.90;;;;;;;;;;106694;1277;22642;-83
2023/04/14 18:11:13;;;;;;;;;;;;;;;;;;;;;
2023/04/14 18:13:52;;;;;;;56.70;29.60;;;;;;;;;;106134;1280;22539;-85
2023/04/14 18:17:45;;;;;;;52.60;29.70;;;;;;;;;;106152;1287;22668;-84
2023/04/14 18:20:23;;;;;;;44.90;23.90;;;;;;;;;;105931;1292;23295;-82